Etusivu
METAR-TAF:

METAR-TAF

Lentoasemat :

Recife, Pernambuco, Brasilia

Leveyspiiri: 08-08S, Pituuspiiri: 034-55W, korkeus merenpinnasta: 19 m

Tämänhetkinen sää

Tämä raportti tehtiin 17 minuuttia sitten, kello 14.00 UTC
Tuuli 12 kn kaakosta
Lämpötila 29°C
Kosteus 66%
Ilmanpaine 1012 hPa
Näkyvyys 10 km tai enemmän
Hajanaisia pilviä 2300 ft:n korkeudessa
Hajanaisia pilviä 6000 ft:n korkeudessa

METAR: SBRF 221400Z 14012KT 9999 SCT023 SCT060 29/22 Q1012

Aika: 11:17 (14:17 UTC)

Sääennuste

Tämä raportti tehtiin 4 tuntia ja 17 minuuttia sitten, kello 10.00 UTC
Ennuste voimassa 22. päivästä klo 12 UTC - 23. päivään klo 12 UTC
Tuuli 10 kn idästä/kaakosta
Näkyvyys: 7000 m
Hajanaisia pilviä 2200 ft:n korkeudessa
Tulossa
23. päivästä klo 00 UTC - 23. päivään klo 02 UTC
Tuuli 5 kn idästä/kaakosta

TAF: SBRF 221000Z 2212/2312 12010KT 7000 SCT022 TX29/2216Z TN25/2308Z BECMG 2300/2302 12005KT RMK PEA

Säähavainnot ja -ennusteet yli 4000 lentoasemalta (METAR- ja TAF-raportit).

Käytössä olevat sääasemat on merkitty karttaan keltaisilla ja punaisilla pisteillä.

Aseta hiiri pisteen päälle nähdäksesi sääaseman nimen.

Klikkaa sitten nähdäksesi säähavainnot ja -ennusteet.

Kartan vaihtaminen: klikkaa mustalla rastilla varustettuja vihreitä pisteitä, niin voit zoomata sisään; viivalla varustettua vihreää pistettä, niin voit zoomata ulos tai vihreitä nuolia, niin pääset viereisille kartoille.


METAR-TAF: